sensor_id;sensor_type;location;lat;lon;timestamp;pressure;altitude;pressure_sealevel;temperature;humidity
73941;BME280;62294;48.554;10.202;2023-08-07T00:01:18;95258.00;;;10.22;100.00
73941;BME280;62294;48.554;10.202;2023-08-07T00:03:45;95266.72;;;10.34;100.00
73941;BME280;62294;48.554;10.202;2023-08-07T00:06:12;95272.84;;;10.35;100.00
73941;BME280;62294;48.554;10.202;2023-08-07T00:08:38;95279.66;;;10.42;100.00
73941;BME280;62294;48.554;10.202;2023-08-07T00:11:08;95282.44;;;10.36;100.00
73941;BME280;62294;48.554;10.202;2023-08-07T00:13:35;95289.75;;;10.29;100.00
73941;BME280;62294;48.554;10.202;2023-08-07T00:16:02;95296.19;;;10.33;100.00
73941;BME280;62294;48.554;10.202;2023-08-07T00:18:29;95297.34;;;10.37;100.00
73941;BME280;62294;48.554;10.202;2023-08-07T00:20:56;95298.38;;;10.36;100.00
73941;BME280;62294;48.554;10.202;2023-08-07T00:23:23;95309.22;;;10.34;100.00
73941;BME280;62294;48.554;10.202;2023-08-07T00:25:49;95318.34;;;10.38;100.00
73941;BME280;62294;48.554;10.202;2023-08-07T00:28:16;95317.56;;;10.38;100.00
73941;BME280;62294;48.554;10.202;2023-08-07T00:30:42;95323.09;;;10.36;100.00
73941;BME280;62294;48.554;10.202;2023-08-07T00:33:09;95317.22;;;10.23;100.00
73941;BME280;62294;48.554;10.202;2023-08-07T00:35:36;95316.09;;;10.19;100.00
73941;BME280;62294;48.554;10.202;2023-08-07T00:38:02;95329.34;;;10.30;100.00
73941;BME280;62294;48.554;10.202;2023-08-07T00:40:36;95339.59;;;10.27;100.00
73941;BME280;62294;48.554;10.202;2023-08-07T00:43:03;95346.06;;;10.42;100.00
73941;BME280;62294;48.554;10.202;2023-08-07T00:45:29;95343.41;;;10.42;100.00
73941;BME280;62294;48.554;10.202;2023-08-07T00:47:58;95352.53;;;10.35;100.00
73941;BME280;62294;48.554;10.202;2023-08-07T00:50:25;95342.69;;;10.58;100.00
73941;BME280;62294;48.554;10.202;2023-08-07T00:53:10;95335.19;;;10.44;100.00
73941;BME280;62294;48.554;10.202;2023-08-07T00:55:37;95339.91;;;10.53;100.00
73941;BME280;62294;48.554;10.202;2023-08-07T00:58:03;95328.63;;;10.35;100.00
73941;BME280;62294;48.554;10.202;2023-08-07T01:00:30;95339.28;;;10.23;100.00
73941;BME280;62294;48.554;10.202;2023-08-07T01:02:57;95336.88;;;10.22;100.00
73941;BME280;62294;48.554;10.202;2023-08-07T01:05:24;95338.44;;;10.34;100.00
73941;BME280;62294;48.554;10.202;2023-08-07T01:07:53;95336.59;;;10.35;100.00
73941;BME280;62294;48.554;10.202;2023-08-07T01:10:26;95331.03;;;10.36;100.00
73941;BME280;62294;48.554;10.202;2023-08-07T01:13:05;95330.84;;;10.38;100.00
73941;BME280;62294;48.554;10.202;2023-08-07T01:15:35;95325.84;;;10.41;100.00
73941;BME280;62294;48.554;10.202;2023-08-07T01:18:04;95318.13;;;10.40;100.00
73941;BME280;62294;48.554;10.202;2023-08-07T01:20:34;95306.72;;;10.28;100.00
73941;BME280;62294;48.554;10.202;2023-08-07T01:23:00;95295.25;;;10.39;100.00
73941;BME280;62294;48.554;10.202;2023-08-07T01:25:27;95300.09;;;10.42;100.00
73941;BME280;62294;48.554;10.202;2023-08-07T01:28:02;95286.56;;;10.43;100.00
73941;BME280;62294;48.554;10.202;2023-08-07T01:30:42;95284.94;;;10.54;100.00
73941;BME280;62294;48.554;10.202;2023-08-07T01:33:24;95273.59;;;10.58;100.00
73941;BME280;62294;48.554;10.202;2023-08-07T01:35:55;95267.88;;;10.66;100.00
73941;BME280;62294;48.554;10.202;2023-08-07T01:38:25;95254.06;;;10.53;100.00
73941;BME280;62294;48.554;10.202;2023-08-07T01:40:52;95232.81;;;10.53;100.00
73941;BME280;62294;48.554;10.202;2023-08-07T01:43:19;95228.63;;;10.57;100.00
73941;BME280;62294;48.554;10.202;2023-08-07T01:45:47;95219.78;;;10.68;100.00
73941;BME280;62294;48.554;10.202;2023-08-07T01:48:13;95211.81;;;10.68;100.00
73941;BME280;62294;48.554;10.202;2023-08-07T01:50:40;95198.06;;;10.71;100.00
73941;BME280;62294;48.554;10.202;2023-08-07T01:53:06;95183.19;;;10.70;100.00
73941;BME280;62294;48.554;10.202;2023-08-07T01:55:33;95174.00;;;10.78;100.00
73941;BME280;62294;48.554;10.202;2023-08-07T01:57:59;95158.28;;;10.76;100.00
73941;BME280;62294;48.554;10.202;2023-08-07T02:00:27;95150.78;;;10.73;100.00
73941;BME280;62294;48.554;10.202;2023-08-07T02:02:53;95143.78;;;10.67;100.00
73941;BME280;62294;48.554;10.202;2023-08-07T02:05:20;95143.63;;;10.74;100.00
73941;BME280;62294;48.554;10.202;2023-08-07T02:07:47;95135.56;;;10.68;100.00
73941;BME280;62294;48.554;10.202;2023-08-07T02:10:13;95142.19;;;10.83;100.00
73941;BME280;62294;48.554;10.202;2023-08-07T02:12:40;95124.31;;;10.78;100.00
73941;BME280;62294;48.554;10.202;2023-08-07T02:15:07;95118.81;;;10.85;100.00
73941;BME280;62294;48.554;10.202;2023-08-07T02:17:34;95111.47;;;10.92;100.00
73941;BME280;62294;48.554;10.202;2023-08-07T02:20:02;95114.94;;;10.92;100.00
73941;BME280;62294;48.554;10.202;2023-08-07T02:22:29;95112.69;;;10.84;100.00
73941;BME280;62294;48.554;10.202;2023-08-07T02:24:56;95103.69;;;10.85;100.00
73941;BME280;62294;48.554;10.202;2023-08-07T02:27:22;95104.78;;;10.89;100.00
73941;BME280;62294;48.554;10.202;2023-08-07T02:29:49;95098.38;;;10.85;100.00
73941;BME280;62294;48.554;10.202;2023-08-07T02:32:17;95093.69;;;10.92;100.00
73941;BME280;62294;48.554;10.202;2023-08-07T02:34:44;95084.34;;;10.90;100.00
73941;BME280;62294;48.554;10.202;2023-08-07T02:37:11;95087.63;;;10.97;100.00
73941;BME280;62294;48.554;10.202;2023-08-07T02:39:38;95091.59;;;10.94;100.00
73941;BME280;62294;48.554;10.202;2023-08-07T02:42:04;95093.41;;;11.10;100.00
73941;BME280;62294;48.554;10.202;2023-08-07T02:44:31;95088.09;;;11.10;100.00
73941;BME280;62294;48.554;10.202;2023-08-07T02:46:58;95092.13;;;10.96;100.00
73941;BME280;62294;48.554;10.202;2023-08-07T02:49:24;95095.97;;;10.84;100.00
73941;BME280;62294;48.554;10.202;2023-08-07T02:51:51;95112.69;;;11.01;100.00
73941;BME280;62294;48.554;10.202;2023-08-07T02:54:18;95104.31;;;10.92;100.00
73941;BME280;62294;48.554;10.202;2023-08-07T02:56:44;95106.88;;;11.04;100.00
73941;BME280;62294;48.554;10.202;2023-08-07T02:59:11;95101.31;;;11.05;100.00
73941;BME280;62294;48.554;10.202;2023-08-07T03:01:37;95100.94;;;10.80;100.00
73941;BME280;62294;48.554;10.202;2023-08-07T03:04:04;95097.88;;;10.88;100.00
73941;BME280;62294;48.554;10.202;2023-08-07T03:06:30;95115.59;;;10.83;100.00
73941;BME280;62294;48.554;10.202;2023-08-07T03:08:57;95106.97;;;10.92;100.00
73941;BME280;62294;48.554;10.202;2023-08-07T03:11:23;95117.22;;;10.84;100.00
73941;BME280;62294;48.554;10.202;2023-08-07T03:13:50;95109.63;;;10.92;100.00
73941;BME280;62294;48.554;10.202;2023-08-07T03:16:16;95105.75;;;11.00;100.00
73941;BME280;62294;48.554;10.202;2023-08-07T03:18:43;95104.00;;;10.89;100.00
73941;BME280;62294;48.554;10.202;2023-08-07T03:21:10;95101.56;;;11.04;100.00
73941;BME280;62294;48.554;10.202;2023-08-07T03:23:36;95100.13;;;10.96;100.00
73941;BME280;62294;48.554;10.202;2023-08-07T03:26:04;95085.78;;;10.97;100.00
73941;BME280;62294;48.554;10.202;2023-08-07T03:28:35;95092.06;;;10.91;100.00
73941;BME280;62294;48.554;10.202;2023-08-07T03:31:02;95091.69;;;10.83;100.00
73941;BME280;62294;48.554;10.202;2023-08-07T03:33:29;95086.09;;;10.84;100.00
73941;BME280;62294;48.554;10.202;2023-08-07T03:35:56;95085.63;;;10.87;100.00
73941;BME280;62294;48.554;10.202;2023-08-07T03:38:23;95098.19;;;10.92;100.00
73941;BME280;62294;48.554;10.202;2023-08-07T03:40:49;95099.47;;;10.89;100.00
73941;BME280;62294;48.554;10.202;2023-08-07T03:43:16;95109.16;;;10.79;100.00
73941;BME280;62294;48.554;10.202;2023-08-07T03:45:42;95108.91;;;10.80;100.00
73941;BME280;62294;48.554;10.202;2023-08-07T03:48:09;95108.28;;;10.73;100.00
73941;BME280;62294;48.554;10.202;2023-08-07T03:50:36;95116.41;;;10.83;100.00
73941;BME280;62294;48.554;10.202;2023-08-07T03:53:06;95121.16;;;10.81;100.00
73941;BME280;62294;48.554;10.202;2023-08-07T03:55:34;95121.38;;;10.80;100.00
73941;BME280;62294;48.554;10.202;2023-08-07T03:58:01;95125.34;;;10.77;100.00
73941;BME280;62294;48.554;10.202;2023-08-07T04:00:28;95121.31;;;10.58;100.00
73941;BME280;62294;48.554;10.202;2023-08-07T04:02:56;95117.94;;;10.62;100.00
73941;BME280;62294;48.554;10.202;2023-08-07T04:05:23;95123.81;;;10.81;100.00
73941;BME280;62294;48.554;10.202;2023-08-07T04:07:50;95126.41;;;10.76;100.00
73941;BME280;62294;48.554;10.202;2023-08-07T04:10:16;95119.13;;;10.55;100.00
73941;BME280;62294;48.554;10.202;2023-08-07T04:12:43;95129.13;;;10.64;100.00
73941;BME280;62294;48.554;10.202;2023-08-07T04:15:10;95126.56;;;10.69;100.00
73941;BME280;62294;48.554;10.202;2023-08-07T04:17:36;95134.63;;;10.58;100.00
73941;BME280;62294;48.554;10.202;2023-08-07T04:20:03;95124.78;;;10.58;100.00
73941;BME280;62294;48.554;10.202;2023-08-07T04:22:30;95130.50;;;10.67;100.00
73941;BME280;62294;48.554;10.202;2023-08-07T04:24:57;95127.44;;;10.42;100.00
73941;BME280;62294;48.554;10.202;2023-08-07T04:27:23;95123.09;;;10.69;100.00
73941;BME280;62294;48.554;10.202;2023-08-07T04:29:50;95118.16;;;10.61;100.00
73941;BME280;62294;48.554;10.202;2023-08-07T04:32:16;95121.81;;;10.72;100.00
73941;BME280;62294;48.554;10.202;2023-08-07T04:34:43;95119.13;;;10.55;100.00
73941;BME280;62294;48.554;10.202;2023-08-07T04:37:09;95118.81;;;10.68;100.00
73941;BME280;62294;48.554;10.202;2023-08-07T04:39:36;95124.38;;;10.66;100.00
73941;BME280;62294;48.554;10.202;2023-08-07T04:42:03;95122.34;;;10.57;100.00
73941;BME280;62294;48.554;10.202;2023-08-07T04:44:30;95127.84;;;10.67;100.00
73941;BME280;62294;48.554;10.202;2023-08-07T04:46:57;95127.84;;;10.84;100.00
73941;BME280;62294;48.554;10.202;2023-08-07T04:49:23;95125.25;;;10.89;100.00
73941;BME280;62294;48.554;10.202;2023-08-07T04:51:50;95123.19;;;10.74;100.00
73941;BME280;62294;48.554;10.202;2023-08-07T04:54:17;95120.91;;;10.99;100.00
73941;BME280;62294;48.554;10.202;2023-08-07T04:56:43;95135.78;;;11.00;100.00
73941;BME280;62294;48.554;10.202;2023-08-07T04:59:11;95138.28;;;11.07;100.00
73941;BME280;62294;48.554;10.202;2023-08-07T05:01:37;95131.69;;;11.09;100.00
73941;BME280;62294;48.554;10.202;2023-08-07T05:04:04;95141.34;;;11.15;100.00
73941;BME280;62294;48.554;10.202;2023-08-07T05:06:32;95148.78;;;11.13;100.00
73941;BME280;62294;48.554;10.202;2023-08-07T05:08:58;95141.00;;;11.28;100.00
73941;BME280;62294;48.554;10.202;2023-08-07T05:11:25;95136.50;;;11.29;100.00
73941;BME280;62294;48.554;10.202;2023-08-07T05:13:51;95150.47;;;11.41;100.00
73941;BME280;62294;48.554;10.202;2023-08-07T05:16:18;95147.72;;;11.14;100.00
73941;BME280;62294;48.554;10.202;2023-08-07T05:18:45;95147.22;;;11.17;100.00
73941;BME280;62294;48.554;10.202;2023-08-07T05:21:15;95149.44;;;11.42;100.00
73941;BME280;62294;48.554;10.202;2023-08-07T05:23:42;95153.09;;;11.58;100.00
73941;BME280;62294;48.554;10.202;2023-08-07T05:26:09;95154.38;;;11.72;100.00
73941;BME280;62294;48.554;10.202;2023-08-07T05:28:35;95165.75;;;11.89;100.00
73941;BME280;62294;48.554;10.202;2023-08-07T05:31:02;95178.84;;;11.52;100.00
73941;BME280;62294;48.554;10.202;2023-08-07T05:33:29;95172.47;;;11.70;100.00
73941;BME280;62294;48.554;10.202;2023-08-07T05:35:55;95170.13;;;11.57;100.00
73941;BME280;62294;48.554;10.202;2023-08-07T05:38:22;95173.03;;;11.55;100.00
73941;BME280;62294;48.554;10.202;2023-08-07T05:40:48;95178.81;;;11.69;100.00
73941;BME280;62294;48.554;10.202;2023-08-07T05:43:16;95176.00;;;11.59;100.00
73941;BME280;62294;48.554;10.202;2023-08-07T05:45:43;95170.53;;;11.87;100.00
73941;BME280;62294;48.554;10.202;2023-08-07T05:48:11;95181.69;;;12.32;100.00
73941;BME280;62294;48.554;10.202;2023-08-07T05:50:38;95194.13;;;12.22;100.00
73941;BME280;62294;48.554;10.202;2023-08-07T05:53:04;95195.75;;;12.49;100.00
73941;BME280;62294;48.554;10.202;2023-08-07T05:55:31;95209.13;;;12.54;100.00
73941;BME280;62294;48.554;10.202;2023-08-07T05:57:58;95215.56;;;12.58;100.00
73941;BME280;62294;48.554;10.202;2023-08-07T06:00:24;95227.78;;;13.08;100.00
73941;BME280;62294;48.554;10.202;2023-08-07T06:02:51;95230.16;;;13.36;100.00
73941;BME280;62294;48.554;10.202;2023-08-07T06:05:18;95236.13;;;13.48;100.00
73941;BME280;62294;48.554;10.202;2023-08-07T06:07:44;95246.59;;;13.23;100.00
73941;BME280;62294;48.554;10.202;2023-08-07T06:10:11;95245.91;;;12.79;100.00
73941;BME280;62294;48.554;10.202;2023-08-07T06:12:38;95249.41;;;12.84;100.00
73941;BME280;62294;48.554;10.202;2023-08-07T06:15:05;95248.19;;;13.24;100.00
73941;BME280;62294;48.554;10.202;2023-08-07T06:17:31;95260.31;;;13.73;100.00
73941;BME280;62294;48.554;10.202;2023-08-07T06:19:58;95272.97;;;12.93;100.00
73941;BME280;62294;48.554;10.202;2023-08-07T06:22:25;95268.66;;;13.45;100.00
73941;BME280;62294;48.554;10.202;2023-08-07T06:24:52;95269.97;;;13.42;100.00
73941;BME280;62294;48.554;10.202;2023-08-07T06:27:21;95277.19;;;13.84;100.00
73941;BME280;62294;48.554;10.202;2023-08-07T06:29:47;95268.59;;;13.40;100.00
73941;BME280;62294;48.554;10.202;2023-08-07T06:32:14;95278.47;;;13.08;100.00
73941;BME280;62294;48.554;10.202;2023-08-07T06:34:40;95281.69;;;13.73;100.00
73941;BME280;62294;48.554;10.202;2023-08-07T06:37:07;95288.97;;;13.51;100.00
73941;BME280;62294;48.554;10.202;2023-08-07T06:39:33;95304.44;;;13.17;100.00
73941;BME280;62294;48.554;10.202;2023-08-07T06:42:01;95298.75;;;13.72;100.00
73941;BME280;62294;48.554;10.202;2023-08-07T06:44:29;95315.31;;;14.11;100.00
73941;BME280;62294;48.554;10.202;2023-08-07T06:46:55;95324.41;;;14.15;100.00
73941;BME280;62294;48.554;10.202;2023-08-07T06:49:22;95355.81;;;14.30;100.00
73941;BME280;62294;48.554;10.202;2023-08-07T06:51:49;95348.88;;;14.96;100.00
73941;BME280;62294;48.554;10.202;2023-08-07T06:54:16;95356.53;;;13.83;100.00
73941;BME280;62294;48.554;10.202;2023-08-07T06:56:42;95352.25;;;13.82;100.00
73941;BME280;62294;48.554;10.202;2023-08-07T06:59:10;95357.81;;;14.17;100.00
73941;BME280;62294;48.554;10.202;2023-08-07T07:01:36;95378.13;;;15.27;100.00
73941;BME280;62294;48.554;10.202;2023-08-07T07:04:03;95389.53;;;14.92;100.00
73941;BME280;62294;48.554;10.202;2023-08-07T07:06:30;95431.81;;;15.57;100.00
73941;BME280;62294;48.554;10.202;2023-08-07T07:08:57;95419.16;;;14.81;100.00
73941;BME280;62294;48.554;10.202;2023-08-07T07:11:23;95419.41;;;15.36;100.00
73941;BME280;62294;48.554;10.202;2023-08-07T07:13:51;95451.94;;;16.41;100.00
73941;BME280;62294;48.554;10.202;2023-08-07T07:16:18;95459.44;;;15.78;100.00
73941;BME280;62294;48.554;10.202;2023-08-07T07:18:45;95458.38;;;15.89;100.00
73941;BME280;62294;48.554;10.202;2023-08-07T07:21:12;95477.00;;;17.89;100.00
73941;BME280;62294;48.554;10.202;2023-08-07T07:23:38;95526.56;;;16.54;100.00
73941;BME280;62294;48.554;10.202;2023-08-07T07:26:05;95494.06;;;16.10;100.00
73941;BME280;62294;48.554;10.202;2023-08-07T07:28:31;95524.59;;;17.20;100.00
73941;BME280;62294;48.554;10.202;2023-08-07T07:30:58;95546.41;;;17.82;100.00
73941;BME280;62294;48.554;10.202;2023-08-07T07:33:25;95592.78;;;17.19;100.00
73941;BME280;62294;48.554;10.202;2023-08-07T07:35:52;95602.38;;;17.75;100.00
73941;BME280;62294;48.554;10.202;2023-08-07T07:38:18;95596.88;;;16.86;100.00
73941;BME280;62294;48.554;10.202;2023-08-07T07:40:45;95609.75;;;16.79;100.00
73941;BME280;62294;48.554;10.202;2023-08-07T07:43:11;95596.16;;;15.98;100.00
73941;BME280;62294;48.554;10.202;2023-08-07T07:45:38;95560.63;;;16.78;100.00
73941;BME280;62294;48.554;10.202;2023-08-07T07:48:05;95578.81;;;16.26;100.00
73941;BME280;62294;48.554;10.202;2023-08-07T07:50:32;95607.84;;;17.04;100.00
73941;BME280;62294;48.554;10.202;2023-08-07T07:52:59;95600.88;;;17.03;100.00
73941;BME280;62294;48.554;10.202;2023-08-07T07:55:25;95599.78;;;15.62;100.00
73941;BME280;62294;48.554;10.202;2023-08-07T07:57:53;95537.91;;;14.75;100.00
73941;BME280;62294;48.554;10.202;2023-08-07T08:00:21;95528.19;;;15.01;100.00
73941;BME280;62294;48.554;10.202;2023-08-07T08:02:49;95538.53;;;16.01;100.00
73941;BME280;62294;48.554;10.202;2023-08-07T08:05:15;95567.59;;;16.89;100.00
73941;BME280;62294;48.554;10.202;2023-08-07T08:07:42;95585.81;;;17.08;100.00
73941;BME280;62294;48.554;10.202;2023-08-07T08:10:09;95572.22;;;15.72;100.00
73941;BME280;62294;48.554;10.202;2023-08-07T08:12:36;95565.13;;;15.04;100.00
73941;BME280;62294;48.554;10.202;2023-08-07T08:15:03;95549.81;;;15.41;100.00
73941;BME280;62294;48.554;10.202;2023-08-07T08:17:30;95537.47;;;15.97;100.00
73941;BME280;62294;48.554;10.202;2023-08-07T08:19:58;95554.72;;;15.54;100.00
73941;BME280;62294;48.554;10.202;2023-08-07T08:22:24;95533.47;;;14.90;100.00
73941;BME280;62294;48.554;10.202;2023-08-07T08:24:51;95535.72;;;15.55;100.00
73941;BME280;62294;48.554;10.202;2023-08-07T08:27:17;95551.88;;;15.81;100.00
73941;BME280;62294;48.554;10.202;2023-08-07T08:29:44;95559.00;;;15.08;100.00
73941;BME280;62294;48.554;10.202;2023-08-07T08:32:12;95554.06;;;14.90;100.00
73941;BME280;62294;48.554;10.202;2023-08-07T08:34:38;95540.06;;;15.20;100.00
73941;BME280;62294;48.554;10.202;2023-08-07T08:37:05;95559.56;;;15.10;100.00
73941;BME280;62294;48.554;10.202;2023-08-07T08:39:32;95572.81;;;15.94;100.00
73941;BME280;62294;48.554;10.202;2023-08-07T08:41:59;95586.72;;;15.81;100.00
73941;BME280;62294;48.554;10.202;2023-08-07T08:44:26;95598.19;;;16.98;100.00
73941;BME280;62294;48.554;10.202;2023-08-07T08:46:54;95636.84;;;16.72;100.00
73941;BME280;62294;48.554;10.202;2023-08-07T08:49:33;95648.31;;;16.43;100.00
73941;BME280;62294;48.554;10.202;2023-08-07T08:52:02;95624.41;;;16.41;100.00
73941;BME280;62294;48.554;10.202;2023-08-07T08:54:28;95636.69;;;16.12;100.00
73941;BME280;62294;48.554;10.202;2023-08-07T08:56:56;95635.13;;;16.36;100.00
73941;BME280;62294;48.554;10.202;2023-08-07T08:59:25;95648.91;;;15.93;100.00
73941;BME280;62294;48.554;10.202;2023-08-07T09:01:52;95634.44;;;15.89;100.00
73941;BME280;62294;48.554;10.202;2023-08-07T09:04:19;95634.16;;;16.77;100.00
73941;BME280;62294;48.554;10.202;2023-08-07T09:06:46;95664.44;;;16.53;100.00
73941;BME280;62294;48.554;10.202;2023-08-07T09:09:14;95657.69;;;16.50;100.00
73941;BME280;62294;48.554;10.202;2023-08-07T09:11:42;95634.13;;;16.52;100.00
73941;BME280;62294;48.554;10.202;2023-08-07T09:14:15;95666.63;;;16.61;100.00
73941;BME280;62294;48.554;10.202;2023-08-07T09:16:44;95660.97;;;17.48;100.00
73941;BME280;62294;48.554;10.202;2023-08-07T09:19:12;95684.84;;;17.90;100.00
73941;BME280;62294;48.554;10.202;2023-08-07T09:21:39;95696.81;;;18.27;100.00
73941;BME280;62294;48.554;10.202;2023-08-07T09:24:06;95710.66;;;18.60;100.00
73941;BME280;62294;48.554;10.202;2023-08-07T09:26:33;95687.03;;;17.07;100.00
73941;BME280;62294;48.554;10.202;2023-08-07T09:29:03;95666.91;;;16.94;100.00
73941;BME280;62294;48.554;10.202;2023-08-07T09:31:29;95643.44;;;15.63;100.00
73941;BME280;62294;48.554;10.202;2023-08-07T09:34:04;95621.91;;;15.06;100.00
73941;BME280;62294;48.554;10.202;2023-08-07T09:36:31;95602.34;;;15.05;100.00
73941;BME280;62294;48.554;10.202;2023-08-07T09:39:02;95595.69;;;14.71;100.00
73941;BME280;62294;48.554;10.202;2023-08-07T09:41:31;95586.53;;;14.99;100.00
73941;BME280;62294;48.554;10.202;2023-08-07T09:43:58;95588.84;;;14.90;100.00
73941;BME280;62294;48.554;10.202;2023-08-07T09:46:25;95580.88;;;15.37;100.00
73941;BME280;62294;48.554;10.202;2023-08-07T09:48:57;95604.47;;;15.97;100.00
73941;BME280;62294;48.554;10.202;2023-08-07T09:51:25;95636.28;;;16.75;100.00
73941;BME280;62294;48.554;10.202;2023-08-07T09:53:51;95693.25;;;17.18;100.00
73941;BME280;62294;48.554;10.202;2023-08-07T09:56:18;95722.78;;;17.13;100.00
73941;BME280;62294;48.554;10.202;2023-08-07T09:58:48;95746.69;;;17.24;100.00
73941;BME280;62294;48.554;10.202;2023-08-07T10:01:16;95720.34;;;17.06;100.00
73941;BME280;62294;48.554;10.202;2023-08-07T10:03:43;95738.63;;;17.39;100.00
73941;BME280;62294;48.554;10.202;2023-08-07T10:06:10;95749.25;;;18.30;100.00
73941;BME280;62294;48.554;10.202;2023-08-07T10:08:37;95770.31;;;18.87;100.00
73941;BME280;62294;48.554;10.202;2023-08-07T10:11:07;95800.97;;;18.96;100.00
73941;BME280;62294;48.554;10.202;2023-08-07T10:13:35;95810.06;;;19.05;100.00
73941;BME280;62294;48.554;10.202;2023-08-07T10:16:06;95791.00;;;18.07;100.00
73941;BME280;62294;48.554;10.202;2023-08-07T10:18:33;95771.47;;;19.58;100.00
73941;BME280;62294;48.554;10.202;2023-08-07T10:21:01;95771.63;;;18.10;100.00
73941;BME280;62294;48.554;10.202;2023-08-07T10:23:28;95752.00;;;18.84;100.00
73941;BME280;62294;48.554;10.202;2023-08-07T10:25:54;95784.09;;;19.19;100.00
73941;BME280;62294;48.554;10.202;2023-08-07T10:28:23;95833.75;;;19.03;100.00
73941;BME280;62294;48.554;10.202;2023-08-07T10:30:53;95824.38;;;18.11;100.00
73941;BME280;62294;48.554;10.202;2023-08-07T10:33:20;95831.78;;;18.65;100.00
73941;BME280;62294;48.554;10.202;2023-08-07T10:35:48;95878.63;;;18.64;100.00
73941;BME280;62294;48.554;10.202;2023-08-07T10:38:14;95886.69;;;19.38;100.00
73941;BME280;62294;48.554;10.202;2023-08-07T10:41:01;95892.00;;;20.30;100.00
73941;BME280;62294;48.554;10.202;2023-08-07T10:43:35;95902.81;;;18.79;100.00
73941;BME280;62294;48.554;10.202;2023-08-07T10:46:03;95908.78;;;18.35;100.00
73941;BME280;62294;48.554;10.202;2023-08-07T10:48:38;95920.84;;;17.62;100.00
73941;BME280;62294;48.554;10.202;2023-08-07T10:51:07;95908.94;;;19.04;100.00
73941;BME280;62294;48.554;10.202;2023-08-07T10:53:40;95941.38;;;19.48;100.00
73941;BME280;62294;48.554;10.202;2023-08-07T10:56:10;95970.41;;;19.61;100.00
73941;BME280;62294;48.554;10.202;2023-08-07T10:58:39;95963.78;;;19.29;100.00
73941;BME280;62294;48.554;10.202;2023-08-07T11:04:09;96021.06;;;20.62;100.00
73941;BME280;62294;48.554;10.202;2023-08-07T11:06:37;96015.34;;;19.76;100.00
73941;BME280;62294;48.554;10.202;2023-08-07T11:09:06;96012.22;;;20.51;100.00
73941;BME280;62294;48.554;10.202;2023-08-07T11:14:20;96033.97;;;20.65;100.00
73941;BME280;62294;48.554;10.202;2023-08-07T11:16:48;96026.41;;;20.67;100.00
73941;BME280;62294;48.554;10.202;2023-08-07T11:19:16;96020.97;;;19.90;100.00
73941;BME280;62294;48.554;10.202;2023-08-07T11:21:43;96015.16;;;19.62;100.00
73941;BME280;62294;48.554;10.202;2023-08-07T11:24:12;95999.69;;;19.09;100.00
73941;BME280;62294;48.554;10.202;2023-08-07T11:26:42;96008.75;;;19.48;100.00
73941;BME280;62294;48.554;10.202;2023-08-07T11:29:08;95986.31;;;18.64;100.00
73941;BME280;62294;48.554;10.202;2023-08-07T11:31:35;95976.34;;;18.49;100.00
73941;BME280;62294;48.554;10.202;2023-08-07T11:34:02;95970.81;;;19.25;100.00
73941;BME280;62294;48.554;10.202;2023-08-07T11:36:29;95968.50;;;18.88;100.00
73941;BME280;62294;48.554;10.202;2023-08-07T11:38:55;95979.69;;;19.35;100.00
73941;BME280;62294;48.554;10.202;2023-08-07T11:41:23;95989.47;;;19.01;100.00
73941;BME280;62294;48.554;10.202;2023-08-07T11:43:49;96003.94;;;19.40;100.00
73941;BME280;62294;48.554;10.202;2023-08-07T11:46:16;96024.88;;;19.63;100.00
73941;BME280;62294;48.554;10.202;2023-08-07T11:48:43;96024.25;;;18.77;100.00
73941;BME280;62294;48.554;10.202;2023-08-07T11:51:10;95987.28;;;17.77;100.00
73941;BME280;62294;48.554;10.202;2023-08-07T11:53:38;95993.81;;;18.26;100.00
73941;BME280;62294;48.554;10.202;2023-08-07T11:56:10;95993.81;;;18.41;100.00
73941;BME280;62294;48.554;10.202;2023-08-07T11:58:44;96002.97;;;18.40;100.00
73941;BME280;62294;48.554;10.202;2023-08-07T12:01:17;96010.09;;;17.64;100.00
73941;BME280;62294;48.554;10.202;2023-08-07T12:03:57;96015.88;;;18.13;100.00
73941;BME280;62294;48.554;10.202;2023-08-07T12:06:36;96017.38;;;17.74;100.00
73941;BME280;62294;48.554;10.202;2023-08-07T12:09:05;96015.59;;;18.20;100.00
73941;BME280;62294;48.554;10.202;2023-08-07T12:11:35;96029.31;;;19.09;100.00
73941;BME280;62294;48.554;10.202;2023-08-07T12:14:01;96033.72;;;19.74;100.00
73941;BME280;62294;48.554;10.202;2023-08-07T12:16:32;96035.81;;;18.98;100.00
73941;BME280;62294;48.554;10.202;2023-08-07T12:19:00;96023.41;;;18.21;100.00
73941;BME280;62294;48.554;10.202;2023-08-07T12:21:26;96007.19;;;17.91;100.00
73941;BME280;62294;48.554;10.202;2023-08-07T12:23:57;96023.97;;;18.49;100.00
73941;BME280;62294;48.554;10.202;2023-08-07T12:26:24;96031.50;;;18.36;100.00
73941;BME280;62294;48.554;10.202;2023-08-07T12:28:50;96039.84;;;18.40;100.00
73941;BME280;62294;48.554;10.202;2023-08-07T12:31:18;96039.56;;;18.36;100.00
73941;BME280;62294;48.554;10.202;2023-08-07T12:33:45;96036.84;;;18.11;100.00
73941;BME280;62294;48.554;10.202;2023-08-07T12:36:11;96016.94;;;17.35;100.00
73941;BME280;62294;48.554;10.202;2023-08-07T12:38:42;96001.03;;;18.01;100.00
73941;BME280;62294;48.554;10.202;2023-08-07T12:41:09;95998.94;;;18.23;100.00
73941;BME280;62294;48.554;10.202;2023-08-07T12:43:55;96026.94;;;18.67;100.00
73941;BME280;62294;48.554;10.202;2023-08-07T12:46:22;96033.66;;;18.65;100.00
73941;BME280;62294;48.554;10.202;2023-08-07T12:48:51;96040.34;;;18.37;100.00